Latest Weather Observations for Tennant Creek

IDD60801

Issued at 9:35 am CST Sunday 31 August 2014 (issued every 30 minutes, with the page automatically refreshed every 10 minutes)

About weather observations | Map of weather stations | Latest weather observations for NT | Other Formats
Station Details ID: 015135 Name: TENNANT CREEK AIRPORT Lat: -19.64 Lon: 134.18 Height: 375.7 m
Data from the previous 72 hours. | See also: Recent months at Tennant Creek
Date/Time
CST
Temp
°C
App
Temp
°C
Dew
Point
Rel
Hum
%
Delta-T
°C
Wind Press
QNH
hPa
Press
MSL
hPa
Rain
since 9 am
mm
Dir
 
Spd
km/h
Gust
km/h
Spd
kts
Gust
kts
31/09:30am 23.2 15.3 -8.9 11 12.5 E 26 35 14 19 1019.2 - 0.0
31/09:00am 21.7 13.7 -10.0 11 11.9 E 26 33 14 18 1019.1 1017.7 0.0
31/08:30am 20.9 14.6 -10.0 11 11.5 E 17 30 9 16 1018.9 - 0.0
31/08:00am 18.6 13.1 -9.6 14 10.3 ESE 13 20 7 11 1018.8 - 0.0
31/07:30am 17.0 11.9 -10.0 15 9.6 E 11 15 6 8 1018.5 - 0.0
31/07:00am 15.0 9.0 -10.8 16 8.8 E 15 20 8 11 1018.1 - 0.0
31/06:30am 13.4 8.8 -8.5 21 7.7 E 9 15 5 8 1018.0 - 0.0
31/06:00am 13.5 9.0 -7.2 23 7.5 E 9 11 5 6 1017.9 1016.4 0.0
31/05:30am 13.3 8.7 -7.7 22 7.5 E 9 11 5 6 1017.8 - 0.0
31/05:00am 13.5 8.4 -9.4 19 7.9 E 11 13 6 7 1017.5 - 0.0
31/04:30am 14.9 9.7 -10.5 16 8.7 E 11 13 6 7 1017.4 - 0.0
31/04:00am 15.8 10.9 -11.7 14 9.3 ESE 9 13 5 7 1017.3 - 0.0
31/03:30am 15.9 10.7 -11.4 14 9.3 ESE 11 15 6 8 1017.3 - 0.0
31/03:00am 15.9 11.1 -10.7 15 9.2 E 9 13 5 7 1017.4 1016.0 0.0
31/02:30am 16.6 11.7 -12.0 13 9.7 ESE 9 15 5 8 1017.4 - 0.0
31/02:00am 17.0 12.1 -12.1 12 9.9 ESE 9 15 5 8 1017.5 - 0.0
31/01:30am 15.1 10.6 -6.5 22 8.1 E 9 11 5 6 1017.5 - 0.0
31/01:00am 16.6 11.9 -8.7 17 9.2 E 9 15 5 8 1017.8 - 0.0
31/12:30am 18.1 12.4 -12.7 11 10.5 ESE 13 22 7 12 1018.1 - 0.0
31/12:00am 18.7 13.0 -12.8 10 10.8 ESE 13 17 7 9 1018.3 1016.8 0.0
 
Date/Time
CST
Temp
°C
App
Temp
°C
Dew
Point
Rel
Hum
%
Delta-T
°C
Wind Press
QNH
hPa
Press
MSL
hPa
Rain
since 9 am
mm
Dir
 
Spd
km/h
Gust
km/h
Spd
kts
Gust
kts
30/11:30pm 18.4 13.1 -11.6 12 10.5 ESE 11 15 6 8 1018.3 - 0.0
30/11:00pm 17.8 13.9 -6.6 18 9.4 E 6 9 3 5 1018.4 - 0.0
30/10:30pm 19.7 14.4 -13.0 10 11.3 ESE 11 15 6 8 1018.4 - 0.0
30/10:00pm 20.3 15.0 -12.2 10 11.5 ESE 11 15 6 8 1018.3 - 0.0
30/09:30pm 20.7 15.3 -13.1 9 11.8 ESE 11 15 6 8 1018.2 - 0.0
30/09:00pm 20.9 15.3 -11.5 10 11.7 SE 13 17 7 9 1018.2 1016.7 0.0
30/08:30pm 21.9 16.3 -11.4 10 12.2 SE 13 20 7 11 1017.9 - 0.0
30/08:00pm 21.9 16.7 -10.7 10 12.1 SE 11 17 6 9 1017.5 - 0.0
30/07:30pm 22.4 17.3 -8.9 11 12.1 SE 11 15 6 8 1017.2 - 0.0
30/07:00pm 23.1 18.8 -8.5 11 12.4 SE 7 11 4 6 1016.8 - 0.0
30/06:30pm 24.5 19.9 -8.3 10 13.1 SE 9 11 5 6 1016.7 - 0.0
30/06:00pm 26.0 20.6 -14.7 6 14.7 ESE 11 17 6 9 1016.4 1014.9 0.0
30/05:30pm 26.4 22.6 -5.7 11 13.7 SE 6 15 3 8 1016.3 - 0.0
30/05:00pm 27.3 21.9 -13.8 6 15.3 S 11 20 6 11 1016.2 - 0.0
30/04:30pm 26.6 21.0 -11.0 7 14.6 SSE 13 20 7 11 1016.1 - 0.0
30/04:00pm 27.3 22.7 -12.9 6 15.2 S 7 15 4 8 1016.1 - 0.0
30/03:30pm 27.0 21.8 -10.8 7 14.8 SSE 11 15 6 8 1016.2 - 0.0
30/03:00pm 26.7 22.2 -11.3 7 14.7 ESE 7 20 4 11 1016.4 1014.9 0.0
30/02:30pm 26.8 22.0 -10.9 7 14.7 NE 9 17 5 9 1016.8 - 0.0
30/02:00pm 26.2 19.9 -9.6 9 14.2 SSE 17 39 9 21 1017.4 - 0.0
30/01:30pm 26.0 20.9 -9.0 9 14.0 ESE 11 20 6 11 1018.1 - 0.0
30/01:00pm 25.2 20.4 -9.9 9 13.7 SE 9 20 5 11 1018.6 - 0.0
30/12:30pm 25.2 20.4 -10.7 8 13.8 SE 9 20 5 11 1019.1 - 0.0
30/12:00pm 25.1 19.6 -9.6 9 13.6 SE 13 22 7 12 1020.0 1018.6 0.0
30/11:30am 24.3 17.1 -9.8 9 13.2 ESE 22 35 12 19 1020.7 - 0.0
30/11:00am 24.6 17.0 -10.2 9 13.4 E 24 39 13 21 1021.1 - 0.0
30/10:30am 23.2 14.4 -10.4 10 12.7 ESE 30 41 16 22 1021.6 - 0.0
30/10:00am 22.6 13.5 -9.7 11 12.3 E 32 41 17 22 1021.6 - 0.0
30/09:30am 21.5 13.5 -9.5 11 11.7 E 26 39 14 21 1021.6 - 0.0
30/09:00am 20.7 12.8 -8.8 13 11.2 ESE 26 39 14 21 1021.7 1020.3 0.0
30/08:30am 19.1 10.9 -8.2 15 10.3 ESE 28 41 15 22 1021.6 - 0.0
30/08:00am 17.7 10.3 -7.5 17 9.5 ESE 24 32 13 17 1021.5 - 0.0
30/07:30am 16.3 9.7 -6.8 20 8.7 ESE 20 28 11 15 1021.2 - 0.0
30/07:00am 15.3 8.9 -6.6 21 8.2 ESE 19 26 10 14 1021.0 - 0.0
30/06:30am 15.2 8.8 -6.9 21 8.2 ESE 19 26 10 14 1020.7 - 0.0
30/06:00am 15.0 9.0 -6.8 21 8.1 ESE 17 24 9 13 1020.1 1018.7 0.0
30/05:30am 15.3 9.6 -7.1 20 8.3 ESE 15 22 8 12 1019.8 - 0.0
30/05:00am 15.7 9.6 -7.2 20 8.5 ESE 17 24 9 13 1019.4 - 0.0
30/04:30am 15.0 9.8 -6.3 22 8.0 ESE 13 20 7 11 1019.3 - 0.0
30/04:00am 15.1 10.7 -6.1 22 8.0 ESE 9 15 5 8 1019.3 - 0.0
30/03:30am 16.4 10.7 -7.0 19 8.8 ESE 15 20 8 11 1019.0 - 0.0
30/03:00am 15.9 10.3 -6.7 20 8.5 ESE 15 22 8 12 1019.0 1017.6 0.0
30/02:30am 15.5 10.3 -6.1 22 8.2 ESE 13 17 7 9 1019.1 - 0.0
30/02:00am 16.1 10.9 -6.7 20 8.6 ESE 13 20 7 11 1019.4 - 0.0
30/01:30am 16.4 11.2 -6.5 20 8.7 ESE 13 20 7 11 1019.5 - 0.0
30/01:00am 15.8 11.1 -5.0 23 8.1 ESE 11 13 6 7 1019.5 - 0.0
30/12:30am 16.8 11.6 -6.0 20 8.8 ESE 13 17 7 9 1019.3 - 0.0
30/12:00am 17.6 11.9 -7.7 17 9.5 ESE 15 20 8 11 1019.2 1017.8 0.0
 
Date/Time
CST
Temp
°C
App
Temp
°C
Dew
Point
Rel
Hum
%
Delta-T
°C
Wind Press
QNH
hPa
Press
MSL
hPa
Rain
since 9 am
mm
Dir
 
Spd
km/h
Gust
km/h
Spd
kts
Gust
kts
29/11:30pm 18.1 12.4 -8.0 16 9.8 ESE 15 20 8 11 1019.2 - 0.0
29/11:00pm 18.6 13.6 -8.4 15 10.1 ESE 11 20 6 11 1019.3 - 0.0
29/10:30pm 18.8 14.2 -7.8 16 10.1 ESE 9 13 5 7 1019.2 - 0.0
29/10:00pm 19.5 14.6 -7.0 16 10.3 ESE 11 15 6 8 1019.3 - 0.0
29/09:30pm 19.4 14.6 -6.2 17 10.1 E 11 13 6 7 1019.2 - 0.0
29/09:00pm 20.3 15.4 -7.0 15 10.7 ESE 11 15 6 8 1019.1 1017.7 0.0
29/08:30pm 20.7 15.9 -6.4 15 10.8 ESE 11 15 6 8 1018.9 - 0.0
29/08:00pm 21.8 17.3 -7.2 13 11.5 E 9 15 5 8 1018.7 - 0.0
29/07:30pm 22.4 18.2 -7.7 12 11.9 E 7 11 4 6 1018.4 - 0.0
29/07:00pm 23.3 18.7 -7.9 12 12.4 ESE 9 15 5 8 1018.0 - 0.0
29/06:30pm 24.5 19.1 -9.0 10 13.2 ESE 13 22 7 12 1017.5 - 0.0
29/06:00pm 25.7 19.8 -9.4 9 13.9 ESE 15 22 8 12 1017.1 1015.7 0.0
29/05:30pm 26.3 20.3 -10.7 8 14.4 ESE 15 24 8 13 1017.0 - 0.0
29/05:00pm 26.7 20.5 -9.1 9 14.4 SE 17 30 9 16 1016.9 - 0.0
29/04:30pm 26.9 20.7 -9.0 9 14.5 SE 17 24 9 13 1016.9 - 0.0
29/04:00pm 26.9 20.8 -7.7 10 14.3 SE 17 28 9 15 1017.0 - 0.0
29/03:30pm 27.0 20.9 -8.0 9 14.4 E 17 28 9 15 1017.2 - 0.0
29/03:00pm 27.8 21.7 -7.7 9 14.8 E 17 30 9 16 1017.4 1016.0 0.0
29/02:30pm 26.7 20.1 -6.5 11 14.0 E 20 30 11 16 1017.8 - 0.0
29/02:00pm 26.5 19.8 -8.5 9 14.2 ESE 20 32 11 17 1018.3 - 0.0
29/01:30pm 26.2 18.8 -7.0 10 13.8 SE 24 32 13 17 1018.7 - 0.0
29/01:00pm 25.7 18.4 -6.3 11 13.4 E 24 35 13 19 1019.3 - 0.0
29/12:30pm 25.8 19.3 -6.0 12 13.4 ESE 20 33 11 18 1019.8 - 0.0
29/12:00pm 25.4 18.6 -5.0 13 13.0 ESE 22 35 12 19 1020.2 1018.8 0.0
29/11:30am 25.0 17.8 -5.1 13 12.8 E 24 39 13 21 1020.9 - 0.0
29/11:00am 24.6 16.6 -5.7 13 12.7 E 28 43 15 23 1021.3 - 0.0
29/10:30am 23.7 14.5 -4.6 15 12.0 E 35 48 19 26 1021.5 - 0.0
29/10:00am 23.0 14.5 -3.0 17 11.3 E 32 44 17 24 1021.4 - 0.0
29/09:30am 21.9 13.4 -2.9 19 10.7 E 32 46 17 25 1021.3 - 0.0
29/09:00am 20.3 13.0 -2.6 21 9.8 E 26 35 14 19 1021.4 1020.0 0.0
29/08:30am 18.7 11.0 -2.7 23 9.0 E 28 41 15 22 1021.3 - 0.0
29/08:00am 17.0 10.9 -2.1 27 8.0 ESE 20 28 11 15 1021.2 - 0.0
29/07:30am 15.2 9.7 -2.0 30 7.1 ESE 17 26 9 14 1020.8 - 0.0
29/07:00am 13.9 9.2 -2.1 33 6.5 ESE 13 17 7 9 1020.7 - 0.0
29/06:30am 13.5 8.7 -2.4 33 6.4 ESE 13 17 7 9 1020.5 - 0.0
29/06:00am 14.5 9.3 -2.5 31 6.9 SE 15 22 8 12 1020.2 1018.8 0.0
29/05:30am 13.8 8.9 -3.0 31 6.7 ESE 13 20 7 11 1020.0 - 0.0
29/05:00am 13.7 9.2 -3.2 31 6.7 ESE 11 17 6 9 1019.9 - 0.0
29/04:30am 13.8 9.4 -2.6 32 6.6 SE 11 15 6 8 1019.8 - 0.0
29/04:00am 13.7 9.6 -2.8 32 6.6 ESE 9 11 5 6 1019.6 - 0.0
29/03:30am 13.7 9.7 -2.0 33 6.4 E 9 13 5 7 1019.4 - 0.0
29/03:00am 14.3 9.8 -2.9 30 6.9 E 11 13 6 7 1019.5 1018.1 0.0
29/02:30am 14.7 10.2 -2.9 29 7.1 E 11 13 6 7 1019.7 - 0.0
29/02:00am 15.1 11.0 -3.0 28 7.3 ESE 9 13 5 7 1019.9 - 0.0
29/01:30am 16.6 11.6 -4.6 23 8.4 E 13 17 7 9 1019.9 - 0.0
29/01:00am 16.4 11.4 -4.6 23 8.3 ESE 13 20 7 11 1019.9 - 0.0
29/12:30am 16.1 11.5 -4.3 24 8.1 E 11 15 6 8 1020.1 - 0.0
29/12:00am 16.6 11.9 -5.1 22 8.5 ESE 11 13 6 7 1020.1 1018.7 0.0
 
Date/Time
CST
Temp
°C
App
Temp
°C
Dew
Point
Rel
Hum
%
Delta-T
°C
Wind Press
QNH
hPa
Press
MSL
hPa
Rain
since 9 am
mm
Dir
 
Spd
km/h
Gust
km/h
Spd
kts
Gust
kts
28/11:30pm 17.5 11.8 -7.4 17 9.4 ESE 15 22 8 12 1020.1 - 0.0
28/11:00pm 17.9 12.5 -8.0 16 9.7 ESE 13 20 7 11 1020.1 - 0.0
28/10:30pm 18.3 13.3 -8.1 16 9.9 ESE 11 17 6 9 1020.1 - 0.0
28/10:00pm 18.4 13.4 -7.8 16 9.9 E 11 13 6 7 1020.1 - 0.0
28/09:30pm 18.2 13.7 -6.7 18 9.6 E 9 11 5 6 1020.1 - 0.0
28/09:00pm 19.1 14.5 -8.1 15 10.3 ESE 9 15 5 8 1020.1 1018.7 0.0
28/08:30pm 19.1 15.0 -7.0 16 10.1 E 7 11 4 6 1019.9 - 0.0
28/08:00pm 19.9 15.4 -6.4 16 10.4 E 9 13 5 7 1019.7 - 0.0
28/07:30pm 20.1 15.6 -6.4 16 10.5 E 9 11 5 6 1019.4 - 0.0
28/07:00pm 22.0 17.0 -8.4 12 11.8 E 11 15 6 8 1019.0 - 0.0
28/06:30pm 23.6 18.1 -9.5 10 12.8 E 13 20 7 11 1018.8 - 0.0
28/06:00pm 24.7 18.0 -11.1 8 13.6 E 19 30 10 16 1018.4 1016.9 0.0
28/05:30pm 25.5 18.7 -12.6 7 14.2 ESE 19 32 10 17 1018.1 - 0.0
28/05:00pm 25.6 18.6 -12.1 7 14.2 E 20 30 11 16 1017.9 - 0.0
28/04:30pm 25.9 19.6 -10.8 8 14.2 E 17 28 9 15 1017.8 - 0.0
28/04:00pm 26.2 19.2 -12.0 7 14.5 ENE 20 32 11 17 1017.9 - 0.0
28/03:30pm 26.2 18.3 -13.8 6 14.7 E 24 33 13 18 1018.2 - 0.0
28/03:00pm 26.3 19.9 -11.6 7 14.5 ESE 17 30 9 16 1018.4 1016.9 0.0
28/02:30pm 25.3 18.5 -11.8 8 14.0 E 19 26 10 14 1018.7 - 0.0
28/02:00pm 25.1 18.7 -11.1 8 13.8 ESE 17 30 9 16 1019.1 - 0.0
28/01:30pm 25.1 17.8 -11.1 8 13.8 E 22 35 12 19 1019.6 - 0.0
28/01:00pm 25.2 18.0 -10.0 9 13.7 E 22 35 12 19 1020.3 - 0.0
28/12:30pm 24.3 17.8 -8.5 10 13.0 E 19 33 10 18 1020.9 - 0.0
28/12:00pm 23.7 16.3 -7.3 12 12.5 E 24 39 13 21 1021.2 1019.8 0.0
28/11:30am 23.1 14.9 -7.4 12 12.2 E 28 50 15 27 1021.6 - 0.0
28/11:25am 23.2 15.1 -6.5 13 12.1 E 28 50 15 27 1021.7 - 0.0
28/11:00am 22.2 13.2 -6.7 14 11.6 E 33 44 18 24 1021.8 - 0.0
28/10:30am 21.7 12.7 -6.4 14 11.3 E 33 44 18 24 1022.0 - 0.0
28/10:00am 20.8 11.0 -6.8 15 10.9 E 37 50 20 27 1022.4 - 0.0
28/09:38am 20.3 11.5 -6.5 16 10.6 E 32 50 17 27 1022.4 - 0.0

Other Formats:

Comma delimited format used in spreadsheet applications
http://www.bom.gov.au/fwo/IDD60801/IDD60801.94238.axf

JavaScript Object Notation format (JSON) in row-major order
http://www.bom.gov.au/fwo/IDD60801/IDD60801.94238.json